Telford, United Kingdom
Current Conditions -  °F | °C
As of 5:50 AM on Thursday 29 Jan 2015 (Local Time) from EGOS Reporting Station
Rain Showers Rain Showers  
Wind Chill: 30°   Ceiling: 3100
Heat Index: 37°   Visibility: 6mi
Dew Point: 30°   Wind: 12mph
Humidity: 75%   Direction: 240°WSW
Pressure: 29.18"   Gusts: NA
Location:  52.68°N, 2.45°W
Report Text: EGOS 290550Z AUTO 24010KT 9999 -SHRA BKN031/// 03/M01 Q0988
Loading
Personal Weather Stations






























Interactive Weather Map New forecast layout! Learn more

10-Day Weather Forecast

Advertisements
Track Severe Weather on mobile